sensor_id;sensor_type;location;lat;lon;timestamp;pressure;altitude;pressure_sealevel;temperature;humidity
69037;BME280;58547;51.690;5.186;2022-08-01T00:01:30;101703.50;;;19.00;94.79
69037;BME280;58547;51.690;5.186;2022-08-01T00:03:56;101705.41;;;18.98;94.51
69037;BME280;58547;51.690;5.186;2022-08-01T00:06:21;101707.09;;;18.99;94.35
69037;BME280;58547;51.690;5.186;2022-08-01T00:08:46;101709.00;;;18.97;93.96
69037;BME280;58547;51.690;5.186;2022-08-01T00:11:12;101708.16;;;18.97;93.69
69037;BME280;58547;51.690;5.186;2022-08-01T00:13:37;101709.47;;;18.91;93.84
69037;BME280;58547;51.690;5.186;2022-08-01T00:16:03;101710.66;;;18.87;94.30
69037;BME280;58547;51.690;5.186;2022-08-01T00:18:28;101707.53;;;18.82;94.26
69037;BME280;58547;51.690;5.186;2022-08-01T00:20:53;101707.16;;;18.87;94.24
69037;BME280;58547;51.690;5.186;2022-08-01T00:23:19;101703.06;;;18.83;94.89
69037;BME280;58547;51.690;5.186;2022-08-01T00:25:44;101713.75;;;18.81;94.54
69037;BME280;58547;51.690;5.186;2022-08-01T00:28:10;101713.91;;;18.79;94.56
69037;BME280;58547;51.690;5.186;2022-08-01T00:30:35;101717.13;;;18.83;94.70
69037;BME280;58547;51.690;5.186;2022-08-01T00:33:01;101717.28;;;18.82;94.40
69037;BME280;58547;51.690;5.186;2022-08-01T00:35:26;101716.63;;;18.78;93.98
69037;BME280;58547;51.690;5.186;2022-08-01T00:37:52;101723.44;;;18.69;93.70
69037;BME280;58547;51.690;5.186;2022-08-01T00:40:17;101719.44;;;18.64;94.31
69037;BME280;58547;51.690;5.186;2022-08-01T00:42:43;101729.91;;;18.65;94.07
69037;BME280;58547;51.690;5.186;2022-08-01T00:45:08;101723.16;;;18.61;94.27
69037;BME280;58547;51.690;5.186;2022-08-01T00:47:34;101723.50;;;18.56;94.34
69037;BME280;58547;51.690;5.186;2022-08-01T00:49:59;101729.75;;;18.55;94.87
69037;BME280;58547;51.690;5.186;2022-08-01T00:52:24;101731.66;;;18.53;94.93
69037;BME280;58547;51.690;5.186;2022-08-01T00:54:50;101725.53;;;18.53;94.95
69037;BME280;58547;51.690;5.186;2022-08-01T00:57:16;101727.44;;;18.51;94.85
69037;BME280;58547;51.690;5.186;2022-08-01T00:59:41;101730.09;;;18.51;95.44
69037;BME280;58547;51.690;5.186;2022-08-01T01:02:07;101732.94;;;18.48;94.85
69037;BME280;58547;51.690;5.186;2022-08-01T01:04:32;101732.09;;;18.47;94.90
69037;BME280;58547;51.690;5.186;2022-08-01T01:07:17;101721.88;;;18.43;94.97
69037;BME280;58547;51.690;5.186;2022-08-01T01:12:32;101717.38;;;18.56;94.81
69037;BME280;58547;51.690;5.186;2022-08-01T01:18:20;101702.13;;;18.59;94.05
69037;BME280;58547;51.690;5.186;2022-08-01T01:26:15;101713.69;;;18.58;94.16
69037;BME280;58547;51.690;5.186;2022-08-01T01:31:32;101708.38;;;18.58;93.93
69037;BME280;58547;51.690;5.186;2022-08-01T01:34:02;101708.88;;;18.64;93.85
69037;BME280;58547;51.690;5.186;2022-08-01T01:36:31;101705.41;;;18.63;93.63
69037;BME280;58547;51.690;5.186;2022-08-01T01:38:58;101711.03;;;18.58;93.32
69037;BME280;58547;51.690;5.186;2022-08-01T01:41:25;101712.09;;;18.56;93.95
69037;BME280;58547;51.690;5.186;2022-08-01T01:43:52;101712.81;;;18.58;94.09
69037;BME280;58547;51.690;5.186;2022-08-01T01:46:22;101698.13;;;18.54;93.85
69037;BME280;58547;51.690;5.186;2022-08-01T01:48:48;101710.06;;;18.59;93.52
69037;BME280;58547;51.690;5.186;2022-08-01T01:51:15;101707.31;;;18.61;93.33
69037;BME280;58547;51.690;5.186;2022-08-01T01:53:40;101716.69;;;18.65;93.30
69037;BME280;58547;51.690;5.186;2022-08-01T01:56:08;101704.56;;;18.63;93.33
69037;BME280;58547;51.690;5.186;2022-08-01T01:58:35;101711.88;;;18.59;93.21
69037;BME280;58547;51.690;5.186;2022-08-01T02:01:04;101713.88;;;18.55;93.22
69037;BME280;58547;51.690;5.186;2022-08-01T02:03:32;101709.91;;;18.50;93.44
69037;BME280;58547;51.690;5.186;2022-08-01T02:06:02;101715.19;;;18.50;93.90
69037;BME280;58547;51.690;5.186;2022-08-01T02:08:29;101713.00;;;18.44;94.37
69037;BME280;58547;51.690;5.186;2022-08-01T02:10:55;101718.50;;;18.40;94.28
69037;BME280;58547;51.690;5.186;2022-08-01T02:13:40;101716.09;;;18.37;94.40
69037;BME280;58547;51.690;5.186;2022-08-01T02:16:08;101714.59;;;18.46;94.89
69037;BME280;58547;51.690;5.186;2022-08-01T02:18:36;101708.78;;;18.41;94.10
69037;BME280;58547;51.690;5.186;2022-08-01T02:21:04;101705.53;;;18.37;93.91
69037;BME280;58547;51.690;5.186;2022-08-01T02:23:33;101708.84;;;18.28;94.08
69037;BME280;58547;51.690;5.186;2022-08-01T02:26:03;101708.22;;;18.25;94.41
69037;BME280;58547;51.690;5.186;2022-08-01T02:28:41;101713.75;;;18.22;94.40
69037;BME280;58547;51.690;5.186;2022-08-01T02:31:12;101705.63;;;18.12;94.55
69037;BME280;58547;51.690;5.186;2022-08-01T02:33:42;101715.84;;;18.16;94.83
69037;BME280;58547;51.690;5.186;2022-08-01T02:36:09;101716.00;;;18.15;94.63
69037;BME280;58547;51.690;5.186;2022-08-01T02:38:40;101715.13;;;18.14;94.83
69037;BME280;58547;51.690;5.186;2022-08-01T02:41:09;101714.72;;;18.08;95.10
69037;BME280;58547;51.690;5.186;2022-08-01T02:43:42;101712.44;;;18.03;95.19
69037;BME280;58547;51.690;5.186;2022-08-01T02:46:11;101719.81;;;18.11;95.36
69037;BME280;58547;51.690;5.186;2022-08-01T02:48:42;101711.75;;;18.12;95.31
69037;BME280;58547;51.690;5.186;2022-08-01T02:51:08;101722.59;;;18.20;95.54
69037;BME280;58547;51.690;5.186;2022-08-01T02:53:37;101727.50;;;18.14;94.88
69037;BME280;58547;51.690;5.186;2022-08-01T02:56:08;101727.94;;;18.08;95.25
69037;BME280;58547;51.690;5.186;2022-08-01T02:58:35;101729.50;;;18.10;95.60
69037;BME280;58547;51.690;5.186;2022-08-01T03:01:01;101719.19;;;18.07;95.29
69037;BME280;58547;51.690;5.186;2022-08-01T03:03:28;101714.63;;;18.09;95.13
69037;BME280;58547;51.690;5.186;2022-08-01T03:05:54;101716.53;;;18.07;94.77
69037;BME280;58547;51.690;5.186;2022-08-01T03:08:20;101719.19;;;18.07;94.67
69037;BME280;58547;51.690;5.186;2022-08-01T03:10:48;101719.94;;;17.96;94.97
69037;BME280;58547;51.690;5.186;2022-08-01T03:13:15;101722.78;;;17.93;95.30
69037;BME280;58547;51.690;5.186;2022-08-01T03:15:43;101721.84;;;17.94;94.62
69037;BME280;58547;51.690;5.186;2022-08-01T03:18:10;101730.41;;;17.98;95.02
69037;BME280;58547;51.690;5.186;2022-08-01T03:20:36;101734.97;;;17.96;94.91
69037;BME280;58547;51.690;5.186;2022-08-01T03:23:05;101733.78;;;18.00;94.93
69037;BME280;58547;51.690;5.186;2022-08-01T03:25:31;101741.16;;;17.95;94.88
69037;BME280;58547;51.690;5.186;2022-08-01T03:28:01;101734.41;;;17.91;95.46
69037;BME280;58547;51.690;5.186;2022-08-01T03:30:27;101738.22;;;17.87;95.00
69037;BME280;58547;51.690;5.186;2022-08-01T03:32:55;101742.25;;;17.79;95.74
69037;BME280;58547;51.690;5.186;2022-08-01T03:35:22;101740.78;;;17.75;96.43
69037;BME280;58547;51.690;5.186;2022-08-01T03:37:52;101743.00;;;17.69;96.23
69037;BME280;58547;51.690;5.186;2022-08-01T03:40:23;101742.88;;;17.70;96.18
69037;BME280;58547;51.690;5.186;2022-08-01T03:42:52;101737.00;;;17.67;96.12
69037;BME280;58547;51.690;5.186;2022-08-01T03:45:21;101734.94;;;17.70;96.27
69037;BME280;58547;51.690;5.186;2022-08-01T03:47:49;101730.00;;;17.66;95.93
69037;BME280;58547;51.690;5.186;2022-08-01T03:50:20;101739.09;;;17.62;96.46
69037;BME280;58547;51.690;5.186;2022-08-01T03:52:46;101732.34;;;17.57;96.35
69037;BME280;58547;51.690;5.186;2022-08-01T03:55:14;101739.75;;;17.52;96.86
69037;BME280;58547;51.690;5.186;2022-08-01T03:57:42;101734.47;;;17.52;96.74
69037;BME280;58547;51.690;5.186;2022-08-01T04:00:09;101742.47;;;17.51;96.66
69037;BME280;58547;51.690;5.186;2022-08-01T04:02:36;101743.84;;;17.44;97.32
69037;BME280;58547;51.690;5.186;2022-08-01T04:05:02;101746.47;;;17.44;97.64
69037;BME280;58547;51.690;5.186;2022-08-01T04:07:33;101747.22;;;17.46;97.92
69037;BME280;58547;51.690;5.186;2022-08-01T04:10:01;101747.00;;;17.49;97.70
69037;BME280;58547;51.690;5.186;2022-08-01T04:12:27;101741.31;;;17.55;97.39
69037;BME280;58547;51.690;5.186;2022-08-01T04:14:52;101741.09;;;17.58;97.30
69037;BME280;58547;51.690;5.186;2022-08-01T04:17:18;101738.56;;;17.56;97.59
69037;BME280;58547;51.690;5.186;2022-08-01T04:19:44;101738.16;;;17.63;96.23
69037;BME280;58547;51.690;5.186;2022-08-01T04:22:11;101747.75;;;17.64;97.16
69037;BME280;58547;51.690;5.186;2022-08-01T04:24:39;101745.00;;;17.65;97.25
69037;BME280;58547;51.690;5.186;2022-08-01T04:27:09;101747.41;;;17.68;97.52
69037;BME280;58547;51.690;5.186;2022-08-01T04:29:36;101745.63;;;17.69;97.35
69037;BME280;58547;51.690;5.186;2022-08-01T04:32:03;101742.03;;;17.70;97.36
69037;BME280;58547;51.690;5.186;2022-08-01T04:34:31;101741.81;;;17.73;97.60
69037;BME280;58547;51.690;5.186;2022-08-01T04:36:59;101743.75;;;17.71;97.69
69037;BME280;58547;51.690;5.186;2022-08-01T04:39:27;101745.41;;;17.72;97.91
69037;BME280;58547;51.690;5.186;2022-08-01T04:41:54;101750.06;;;17.68;97.92
69037;BME280;58547;51.690;5.186;2022-08-01T04:44:24;101753.66;;;17.67;98.02
69037;BME280;58547;51.690;5.186;2022-08-01T04:46:50;101747.53;;;17.67;98.00
69037;BME280;58547;51.690;5.186;2022-08-01T04:49:19;101745.75;;;17.67;98.32
69037;BME280;58547;51.690;5.186;2022-08-01T04:52:04;101751.75;;;17.69;97.89
69037;BME280;58547;51.690;5.186;2022-08-01T04:54:33;101751.13;;;17.66;98.58
69037;BME280;58547;51.690;5.186;2022-08-01T04:56:59;101755.00;;;17.60;99.17
69037;BME280;58547;51.690;5.186;2022-08-01T04:59:28;101760.28;;;17.60;99.46
69037;BME280;58547;51.690;5.186;2022-08-01T05:02:07;101763.56;;;17.64;99.49
69037;BME280;58547;51.690;5.186;2022-08-01T05:04:34;101761.66;;;17.66;99.42
69037;BME280;58547;51.690;5.186;2022-08-01T05:06:59;101769.50;;;17.67;99.05
69037;BME280;58547;51.690;5.186;2022-08-01T05:09:25;101773.19;;;17.65;99.70
69037;BME280;58547;51.690;5.186;2022-08-01T05:11:51;101774.03;;;17.65;99.42
69037;BME280;58547;51.690;5.186;2022-08-01T05:14:16;101759.78;;;17.68;98.92
69037;BME280;58547;51.690;5.186;2022-08-01T05:16:41;101770.97;;;17.71;99.12
69037;BME280;58547;51.690;5.186;2022-08-01T05:19:07;101771.69;;;17.73;98.83
69037;BME280;58547;51.690;5.186;2022-08-01T05:21:33;101774.09;;;17.76;98.66
69037;BME280;58547;51.690;5.186;2022-08-01T05:23:58;101780.03;;;17.67;99.43
69037;BME280;58547;51.690;5.186;2022-08-01T05:26:23;101786.06;;;17.69;98.75
69037;BME280;58547;51.690;5.186;2022-08-01T05:28:49;101777.31;;;17.69;98.75
69037;BME280;58547;51.690;5.186;2022-08-01T05:31:14;101785.00;;;17.72;99.39
69037;BME280;58547;51.690;5.186;2022-08-01T05:33:39;101780.13;;;17.78;98.21
69037;BME280;58547;51.690;5.186;2022-08-01T05:36:04;101780.84;;;17.80;98.24
69037;BME280;58547;51.690;5.186;2022-08-01T05:38:30;101779.81;;;17.83;98.79
69037;BME280;58547;51.690;5.186;2022-08-01T05:40:55;101780.56;;;17.85;98.38
69037;BME280;58547;51.690;5.186;2022-08-01T05:43:20;101785.53;;;17.90;97.82
69037;BME280;58547;51.690;5.186;2022-08-01T05:45:45;101790.59;;;17.93;97.03
69037;BME280;58547;51.690;5.186;2022-08-01T05:48:11;101784.25;;;17.95;97.80
69037;BME280;58547;51.690;5.186;2022-08-01T05:50:36;101783.22;;;17.98;97.17
69037;BME280;58547;51.690;5.186;2022-08-01T05:53:01;101785.13;;;17.96;97.25
69037;BME280;58547;51.690;5.186;2022-08-01T05:55:27;101787.84;;;17.94;97.24
69037;BME280;58547;51.690;5.186;2022-08-01T05:57:52;101788.50;;;17.98;97.28
69037;BME280;58547;51.690;5.186;2022-08-01T06:00:17;101792.47;;;18.04;96.62
69037;BME280;58547;51.690;5.186;2022-08-01T06:02:43;101795.66;;;18.09;96.63
69037;BME280;58547;51.690;5.186;2022-08-01T06:05:09;101795.41;;;18.12;96.20
69037;BME280;58547;51.690;5.186;2022-08-01T06:07:35;101786.31;;;18.16;96.21
69037;BME280;58547;51.690;5.186;2022-08-01T06:10:00;101792.44;;;18.16;95.75
69037;BME280;58547;51.690;5.186;2022-08-01T06:12:25;101796.53;;;18.20;95.35
69037;BME280;58547;51.690;5.186;2022-08-01T06:14:51;101797.41;;;18.21;94.61
69037;BME280;58547;51.690;5.186;2022-08-01T06:17:16;101799.91;;;18.23;94.60
69037;BME280;58547;51.690;5.186;2022-08-01T06:19:41;101797.81;;;18.28;94.48
69037;BME280;58547;51.690;5.186;2022-08-01T06:22:07;101799.19;;;18.33;94.94
69037;BME280;58547;51.690;5.186;2022-08-01T06:24:32;101797.03;;;18.38;94.38
69037;BME280;58547;51.690;5.186;2022-08-01T06:26:58;101798.06;;;18.49;93.47
69037;BME280;58547;51.690;5.186;2022-08-01T06:29:23;101804.91;;;18.51;92.57
69037;BME280;58547;51.690;5.186;2022-08-01T06:31:48;101807.56;;;18.51;92.62
69037;BME280;58547;51.690;5.186;2022-08-01T06:34:14;101802.06;;;18.54;94.13
69037;BME280;58547;51.690;5.186;2022-08-01T06:36:40;101806.47;;;18.54;94.31
69037;BME280;58547;51.690;5.186;2022-08-01T06:39:09;101806.16;;;18.58;93.48
69037;BME280;58547;51.690;5.186;2022-08-01T06:41:34;101813.50;;;18.66;93.97
69037;BME280;58547;51.690;5.186;2022-08-01T06:43:59;101812.47;;;18.69;92.68
69037;BME280;58547;51.690;5.186;2022-08-01T06:46:27;101808.75;;;18.71;92.65
69037;BME280;58547;51.690;5.186;2022-08-01T06:48:52;101811.25;;;18.73;91.87
69037;BME280;58547;51.690;5.186;2022-08-01T06:51:18;101819.63;;;18.79;92.76
69037;BME280;58547;51.690;5.186;2022-08-01T06:53:45;101815.66;;;18.85;92.56
69037;BME280;58547;51.690;5.186;2022-08-01T06:56:10;101820.66;;;18.90;92.57
69037;BME280;58547;51.690;5.186;2022-08-01T06:58:36;101825.69;;;18.93;91.39
69037;BME280;58547;51.690;5.186;2022-08-01T07:01:03;101824.59;;;18.95;91.41
69037;BME280;58547;51.690;5.186;2022-08-01T07:03:31;101819.31;;;18.95;91.47
69037;BME280;58547;51.690;5.186;2022-08-01T07:05:57;101819.84;;;19.00;91.26
69037;BME280;58547;51.690;5.186;2022-08-01T07:08:22;101822.88;;;19.07;91.15
69037;BME280;58547;51.690;5.186;2022-08-01T07:10:47;101819.66;;;19.15;90.75
69037;BME280;58547;51.690;5.186;2022-08-01T07:13:13;101821.84;;;19.21;90.88
69037;BME280;58547;51.690;5.186;2022-08-01T07:15:40;101826.16;;;19.22;90.11
69037;BME280;58547;51.690;5.186;2022-08-01T07:18:05;101822.31;;;19.26;90.55
69037;BME280;58547;51.690;5.186;2022-08-01T07:20:30;101815.00;;;19.30;91.44
69037;BME280;58547;51.690;5.186;2022-08-01T07:22:55;101814.75;;;19.33;90.29
69037;BME280;58547;51.690;5.186;2022-08-01T07:25:21;101820.19;;;19.31;89.08
69037;BME280;58547;51.690;5.186;2022-08-01T07:27:46;101829.56;;;19.35;90.18
69037;BME280;58547;51.690;5.186;2022-08-01T07:30:12;101837.38;;;19.37;88.47
69037;BME280;58547;51.690;5.186;2022-08-01T07:32:37;101841.13;;;19.46;89.24
69037;BME280;58547;51.690;5.186;2022-08-01T07:35:03;101828.75;;;19.46;88.71
69037;BME280;58547;51.690;5.186;2022-08-01T07:37:28;101835.34;;;19.52;87.21
69037;BME280;58547;51.690;5.186;2022-08-01T07:39:54;101831.75;;;19.53;87.56
69037;BME280;58547;51.690;5.186;2022-08-01T07:42:19;101840.78;;;19.50;86.16
69037;BME280;58547;51.690;5.186;2022-08-01T07:44:44;101837.06;;;19.53;87.15
69037;BME280;58547;51.690;5.186;2022-08-01T07:47:10;101847.41;;;19.56;86.60
69037;BME280;58547;51.690;5.186;2022-08-01T07:49:35;101841.78;;;19.60;86.71
69037;BME280;58547;51.690;5.186;2022-08-01T07:52:01;101849.09;;;19.68;85.53
69037;BME280;58547;51.690;5.186;2022-08-01T07:54:26;101846.13;;;19.73;85.09
69037;BME280;58547;51.690;5.186;2022-08-01T07:56:53;101846.28;;;19.83;85.02
69037;BME280;58547;51.690;5.186;2022-08-01T07:59:19;101852.78;;;19.90;84.89
69037;BME280;58547;51.690;5.186;2022-08-01T08:01:49;101843.50;;;19.95;84.06
69037;BME280;58547;51.690;5.186;2022-08-01T08:04:15;101842.19;;;20.01;82.53
69037;BME280;58547;51.690;5.186;2022-08-01T08:06:41;101838.94;;;20.09;84.13
69037;BME280;58547;51.690;5.186;2022-08-01T08:09:06;101840.97;;;20.16;83.85
69037;BME280;58547;51.690;5.186;2022-08-01T08:11:32;101849.41;;;20.21;82.63
69037;BME280;58547;51.690;5.186;2022-08-01T08:13:57;101852.06;;;20.21;81.51
69037;BME280;58547;51.690;5.186;2022-08-01T08:16:22;101840.25;;;20.26;79.66
69037;BME280;58547;51.690;5.186;2022-08-01T08:18:51;101846.88;;;20.31;80.22
69037;BME280;58547;51.690;5.186;2022-08-01T08:21:16;101847.59;;;20.33;79.58
69037;BME280;58547;51.690;5.186;2022-08-01T08:23:41;101843.34;;;20.31;79.52
69037;BME280;58547;51.690;5.186;2022-08-01T08:26:25;101842.53;;;20.30;81.77
69037;BME280;58547;51.690;5.186;2022-08-01T08:28:51;101853.72;;;20.34;79.47
69037;BME280;58547;51.690;5.186;2022-08-01T08:31:17;101848.66;;;20.31;80.38
69037;BME280;58547;51.690;5.186;2022-08-01T08:33:42;101850.59;;;20.29;80.95
69037;BME280;58547;51.690;5.186;2022-08-01T08:36:07;101851.47;;;20.29;82.16
69037;BME280;58547;51.690;5.186;2022-08-01T08:38:33;101848.28;;;20.35;79.56
69037;BME280;58547;51.690;5.186;2022-08-01T08:40:59;101853.81;;;20.43;80.16
69037;BME280;58547;51.690;5.186;2022-08-01T08:43:25;101847.78;;;20.53;79.58
69037;BME280;58547;51.690;5.186;2022-08-01T08:45:51;101856.84;;;20.61;78.95
69037;BME280;58547;51.690;5.186;2022-08-01T08:48:17;101853.47;;;20.59;78.02
69037;BME280;58547;51.690;5.186;2022-08-01T08:50:45;101839.00;;;20.64;78.66
69037;BME280;58547;51.690;5.186;2022-08-01T08:53:13;101862.09;;;20.73;78.44
69037;BME280;58547;51.690;5.186;2022-08-01T08:55:41;101868.47;;;20.81;78.17
69037;BME280;58547;51.690;5.186;2022-08-01T08:58:11;101868.44;;;20.93;77.52
69037;BME280;58547;51.690;5.186;2022-08-01T09:00:39;101870.78;;;21.07;74.41
69037;BME280;58547;51.690;5.186;2022-08-01T09:03:04;101872.94;;;21.13;74.72
69037;BME280;58547;51.690;5.186;2022-08-01T09:05:30;101861.22;;;21.16;74.36
69037;BME280;58547;51.690;5.186;2022-08-01T09:07:55;101859.38;;;21.28;75.36
69037;BME280;58547;51.690;5.186;2022-08-01T09:10:21;101866.41;;;21.38;73.31
69037;BME280;58547;51.690;5.186;2022-08-01T09:13:06;101870.13;;;21.47;74.53
69037;BME280;58547;51.690;5.186;2022-08-01T09:15:46;101869.06;;;21.38;74.06
69037;BME280;58547;51.690;5.186;2022-08-01T09:18:34;101877.34;;;21.24;73.73
69037;BME280;58547;51.690;5.186;2022-08-01T09:23:36;101874.00;;;20.90;74.16
69037;BME280;58547;51.690;5.186;2022-08-01T09:26:05;101892.81;;;20.87;77.19
69037;BME280;58547;51.690;5.186;2022-08-01T09:28:31;101896.94;;;20.79;78.27
69037;BME280;58547;51.690;5.186;2022-08-01T09:30:57;101897.22;;;20.65;80.47
69037;BME280;58547;51.690;5.186;2022-08-01T09:33:23;101911.53;;;20.40;81.82
69037;BME280;58547;51.690;5.186;2022-08-01T09:35:56;101897.69;;;20.02;82.43
69037;BME280;58547;51.690;5.186;2022-08-01T09:38:25;101917.28;;;19.89;83.22
69037;BME280;58547;51.690;5.186;2022-08-01T09:40:58;101926.69;;;19.81;84.66
69037;BME280;58547;51.690;5.186;2022-08-01T09:43:30;101934.78;;;19.67;86.63
69037;BME280;58547;51.690;5.186;2022-08-01T09:45:57;101936.34;;;19.34;87.49
69037;BME280;58547;51.690;5.186;2022-08-01T09:48:25;101938.06;;;19.35;88.88
69037;BME280;58547;51.690;5.186;2022-08-01T09:50:53;101936.59;;;19.31;88.04
69037;BME280;58547;51.690;5.186;2022-08-01T09:53:19;101934.19;;;19.39;88.80
69037;BME280;58547;51.690;5.186;2022-08-01T09:55:45;101935.34;;;19.48;88.70
69037;BME280;58547;51.690;5.186;2022-08-01T09:58:11;101942.00;;;19.65;92.58
69037;BME280;58547;51.690;5.186;2022-08-01T10:00:37;101943.47;;;19.69;87.93
69037;BME280;58547;51.690;5.186;2022-08-01T10:03:24;101947.81;;;19.70;87.64
69037;BME280;58547;51.690;5.186;2022-08-01T10:05:50;101941.66;;;19.70;87.57
69037;BME280;58547;51.690;5.186;2022-08-01T10:08:17;101947.47;;;19.75;91.00
69037;BME280;58547;51.690;5.186;2022-08-01T10:11:07;101945.44;;;19.78;88.44
69037;BME280;58547;51.690;5.186;2022-08-01T10:13:33;101947.16;;;19.91;89.43
69037;BME280;58547;51.690;5.186;2022-08-01T10:16:00;101948.59;;;20.06;87.30
69037;BME280;58547;51.690;5.186;2022-08-01T10:18:26;101949.72;;;20.26;87.72
69037;BME280;58547;51.690;5.186;2022-08-01T10:20:54;101948.28;;;20.33;84.42
69037;BME280;58547;51.690;5.186;2022-08-01T10:23:20;101957.81;;;20.36;86.54
69037;BME280;58547;51.690;5.186;2022-08-01T10:25:46;101952.16;;;20.63;89.97
69037;BME280;58547;51.690;5.186;2022-08-01T10:28:14;101949.81;;;20.92;81.93
69037;BME280;58547;51.690;5.186;2022-08-01T10:30:44;101943.97;;;21.10;79.79
69037;BME280;58547;51.690;5.186;2022-08-01T10:33:10;101946.13;;;21.16;80.69
69037;BME280;58547;51.690;5.186;2022-08-01T10:35:38;101953.31;;;21.36;80.08
69037;BME280;58547;51.690;5.186;2022-08-01T10:38:04;101944.78;;;21.54;79.79
69037;BME280;58547;51.690;5.186;2022-08-01T10:40:29;101954.84;;;21.50;78.43
69037;BME280;58547;51.690;5.186;2022-08-01T10:42:56;101953.88;;;21.51;78.88
69037;BME280;58547;51.690;5.186;2022-08-01T10:45:22;101949.22;;;21.65;77.34
69037;BME280;58547;51.690;5.186;2022-08-01T10:47:56;101950.63;;;21.69;77.06
69037;BME280;58547;51.690;5.186;2022-08-01T10:50:32;101952.78;;;21.75;78.20
69037;BME280;58547;51.690;5.186;2022-08-01T10:56:01;101948.53;;;21.83;77.29
69037;BME280;58547;51.690;5.186;2022-08-01T10:58:32;101946.78;;;21.94;74.19
69037;BME280;58547;51.690;5.186;2022-08-01T11:01:24;101959.97;;;22.05;73.06
69037;BME280;58547;51.690;5.186;2022-08-01T11:04:13;101948.25;;;21.87;75.92
69037;BME280;58547;51.690;5.186;2022-08-01T11:07:02;101953.38;;;21.78;74.66
69037;BME280;58547;51.690;5.186;2022-08-01T11:09:44;101964.31;;;21.85;74.46
69037;BME280;58547;51.690;5.186;2022-08-01T11:12:12;101957.19;;;22.07;71.80
69037;BME280;58547;51.690;5.186;2022-08-01T11:17:35;101957.19;;;22.37;72.66
69037;BME280;58547;51.690;5.186;2022-08-01T11:20:11;101965.69;;;22.52;72.27
69037;BME280;58547;51.690;5.186;2022-08-01T11:30:52;101969.66;;;22.37;68.94
69037;BME280;58547;51.690;5.186;2022-08-01T11:38:45;101971.88;;;22.32;68.27
69037;BME280;58547;51.690;5.186;2022-08-01T11:41:15;101967.28;;;22.34;69.36
69037;BME280;58547;51.690;5.186;2022-08-01T11:54:33;101961.63;;;22.58;66.78
69037;BME280;58547;51.690;5.186;2022-08-01T11:57:01;101962.28;;;22.91;67.78
69037;BME280;58547;51.690;5.186;2022-08-01T11:59:27;101965.84;;;23.11;64.69
69037;BME280;58547;51.690;5.186;2022-08-01T12:01:53;101973.84;;;23.50;64.07
69037;BME280;58547;51.690;5.186;2022-08-01T12:04:19;101969.19;;;24.00;62.67
69037;BME280;58547;51.690;5.186;2022-08-01T12:06:45;101972.56;;;24.40;59.95
69037;BME280;58547;51.690;5.186;2022-08-01T12:09:19;101966.56;;;24.66;59.70
69037;BME280;58547;51.690;5.186;2022-08-01T12:11:45;101966.38;;;24.77;56.38
69037;BME280;58547;51.690;5.186;2022-08-01T12:14:20;101967.16;;;24.87;57.35
69037;BME280;58547;51.690;5.186;2022-08-01T12:16:51;101969.91;;;25.23;56.53
69037;BME280;58547;51.690;5.186;2022-08-01T12:19:22;101965.91;;;25.27;54.75
69037;BME280;58547;51.690;5.186;2022-08-01T12:22:10;101975.34;;;25.75;56.43
69037;BME280;58547;51.690;5.186;2022-08-01T12:24:37;101975.22;;;26.03;54.23
69037;BME280;58547;51.690;5.186;2022-08-01T12:27:04;101969.69;;;26.31;50.14
69037;BME280;58547;51.690;5.186;2022-08-01T12:29:35;101973.41;;;26.72;49.59
69037;BME280;58547;51.690;5.186;2022-08-01T12:32:01;101966.59;;;26.52;47.58
69037;BME280;58547;51.690;5.186;2022-08-01T12:34:28;101972.81;;;26.52;49.81
69037;BME280;58547;51.690;5.186;2022-08-01T12:36:58;101967.88;;;26.65;52.13
69037;BME280;58547;51.690;5.186;2022-08-01T12:39:33;101973.53;;;26.62;51.36
69037;BME280;58547;51.690;5.186;2022-08-01T12:41:59;101977.16;;;26.88;50.32
69037;BME280;58547;51.690;5.186;2022-08-01T12:44:29;101965.94;;;26.92;48.67
69037;BME280;58547;51.690;5.186;2022-08-01T12:46:56;101970.94;;;26.87;48.25
69037;BME280;58547;51.690;5.186;2022-08-01T12:49:22;101968.63;;;26.92;48.66
69037;BME280;58547;51.690;5.186;2022-08-01T12:51:48;101953.91;;;26.96;48.06
69037;BME280;58547;51.690;5.186;2022-08-01T12:54:14;101960.94;;;27.05;47.27
69037;BME280;58547;51.690;5.186;2022-08-01T12:56:39;101958.06;;;26.99;46.85
69037;BME280;58547;51.690;5.186;2022-08-01T12:59:24;101963.34;;;26.66;49.78
69037;BME280;58547;51.690;5.186;2022-08-01T13:01:54;101956.22;;;26.14;47.57
69037;BME280;58547;51.690;5.186;2022-08-01T13:04:21;101950.75;;;25.90;49.80
69037;BME280;58547;51.690;5.186;2022-08-01T13:06:47;101952.97;;;25.76;49.48
69037;BME280;58547;51.690;5.186;2022-08-01T13:09:13;101961.66;;;25.78;49.90
69037;BME280;58547;51.690;5.186;2022-08-01T13:11:41;101959.59;;;25.72;50.61
69037;BME280;58547;51.690;5.186;2022-08-01T13:14:08;101958.91;;;25.44;49.72
69037;BME280;58547;51.690;5.186;2022-08-01T13:16:46;101951.22;;;25.23;51.02
69037;BME280;58547;51.690;5.186;2022-08-01T13:19:11;101952.41;;;25.11;49.36
69037;BME280;58547;51.690;5.186;2022-08-01T13:21:37;101952.47;;;25.19;49.83
69037;BME280;58547;51.690;5.186;2022-08-01T13:24:09;101953.16;;;25.57;47.97
69037;BME280;58547;51.690;5.186;2022-08-01T13:26:48;101953.84;;;26.03;48.88
69037;BME280;58547;51.690;5.186;2022-08-01T13:29:20;101951.53;;;26.42;45.78
69037;BME280;58547;51.690;5.186;2022-08-01T13:31:46;101947.97;;;26.76;46.37
69037;BME280;58547;51.690;5.186;2022-08-01T13:34:12;101947.22;;;27.00;45.79
69037;BME280;58547;51.690;5.186;2022-08-01T13:36:38;101941.19;;;26.98;44.40
69037;BME280;58547;51.690;5.186;2022-08-01T13:39:04;101950.50;;;26.78;44.99
69037;BME280;58547;51.690;5.186;2022-08-01T13:41:48;101944.75;;;26.64;45.41